Time;durP1;ratioP1;P1;durP2;ratioP2;P2;SDS_P1;SDS_P2;PMS_P1;PMS_P2;Temp;Humidity;BMP_temperature;BMP_pressure;BME280_temperature;BME280_humidity;BME280_pressure;Samples;Min_cycle;Max_cycle;Signal;HPM_P1;HPM_P2
2022/04/21 00:02:12;;;;;;;8.85;4.47;;;;;;;;;;5030430;28;20499;-74
2022/04/21 00:04:57;;;;;;;7.20;4.32;;;;;;;;;;5020384;28;20117;-75
2022/04/21 00:07:44;;;;;;;7.43;3.92;;;;;;;;;;5006111;28;20036;-74
2022/04/21 00:10:29;;;;;;;6.88;4.03;;;;;;;;;;5004065;28;20547;-75
2022/04/21 00:13:15;;;;;;;7.20;4.32;;;;;;;;;;5005984;28;20447;-72
2022/04/21 00:16:00;;;;;;;6.78;4.47;;;;;;;;;;4994772;28;20030;-73
2022/04/21 00:18:48;;;;;;;12.18;5.68;;;;;;;;;;4994062;28;20058;-70
2022/04/21 00:23:26;;;;;;;8.90;5.20;;;;;;;;;;4998391;28;20496;-69
2022/04/21 00:24:38;;;;;;;8.77;4.28;;;;;;;;;;4997698;28;20030;-69
2022/04/21 00:27:23;;;;;;;7.95;5.00;;;;;;;;;;5002043;28;20117;-69
2022/04/21 00:30:09;;;;;;;7.32;4.18;;;;;;;;;;5010062;28;20034;-71
2022/04/21 00:32:54;;;;;;;8.63;4.53;;;;;;;;;;5024854;28;20029;-68
2022/04/21 00:35:40;;;;;;;6.75;3.97;;;;;;;;;;4996295;28;20517;-65
2022/04/21 00:38:25;;;;;;;6.72;4.43;;;;;;;;;;5022487;28;20049;-64
2022/04/21 00:41:11;;;;;;;9.43;3.80;;;;;;;;;;5006650;28;20425;-65
2022/04/21 00:43:56;;;;;;;6.38;3.75;;;;;;;;;;5001479;28;20033;-65
2022/04/21 00:46:41;;;;;;;9.23;4.40;;;;;;;;;;4997407;28;20032;-65
2022/04/21 00:49:28;;;;;;;9.32;4.97;;;;;;;;;;5022435;28;20458;-64
2022/04/21 00:52:14;;;;;;;9.63;4.40;;;;;;;;;;4996700;28;20029;-66
2022/04/21 00:54:59;;;;;;;6.53;3.90;;;;;;;;;;5009186;28;20237;-63
2022/04/21 00:57:45;;;;;;;9.77;4.32;;;;;;;;;;4986507;28;20034;-65
2022/04/21 01:00:30;;;;;;;13.13;4.45;;;;;;;;;;5009445;28;20022;-63
2022/04/21 01:03:16;;;;;;;11.32;4.13;;;;;;;;;;4996061;28;20499;-67
2022/04/21 01:06:02;;;;;;;13.23;5.05;;;;;;;;;;5009500;28;20854;-64
2022/04/21 01:08:48;;;;;;;7.88;4.75;;;;;;;;;;4999766;28;20121;-70
2022/04/21 01:11:33;;;;;;;6.80;4.38;;;;;;;;;;4997469;28;20083;-79
2022/04/21 01:14:19;;;;;;;6.85;4.88;;;;;;;;;;4982894;28;20477;-67
2022/04/21 01:17:05;;;;;;;6.28;4.63;;;;;;;;;;5015402;28;20065;-67
2022/04/21 01:19:50;;;;;;;8.32;3.85;;;;;;;;;;4999017;28;20022;-66
2022/04/21 01:22:35;;;;;;;7.60;4.70;;;;;;;;;;5014250;28;20104;-68
2022/04/21 01:25:21;;;;;;;7.45;4.68;;;;;;;;;;4996543;28;20072;-67
2022/04/21 01:28:07;;;;;;;5.82;4.30;;;;;;;;;;4983782;28;20029;-67
2022/04/21 01:30:57;;;;;;;8.38;4.78;;;;;;;;;;5012251;28;20598;-67
2022/04/21 01:33:42;;;;;;;6.45;4.15;;;;;;;;;;4996184;28;20059;-68
2022/04/21 01:36:27;;;;;;;6.22;4.35;;;;;;;;;;5007223;28;20036;-68
2022/04/21 01:42:17;;;;;;;7.75;4.03;;;;;;;;;;5015126;28;20333;-67
2022/04/21 01:45:02;;;;;;;9.07;4.70;;;;;;;;;;5012946;28;20410;-69
2022/04/21 01:47:47;;;;;;;11.65;4.47;;;;;;;;;;5012336;28;20469;-70
2022/04/21 01:50:33;;;;;;;7.35;4.47;;;;;;;;;;5009689;28;20080;-70
2022/04/21 01:53:18;;;;;;;7.47;4.00;;;;;;;;;;5022194;28;20033;-69
2022/04/21 01:56:04;;;;;;;7.40;4.68;;;;;;;;;;5015595;28;20075;-68
2022/04/21 01:58:49;;;;;;;8.70;4.47;;;;;;;;;;5014676;28;20017;-69
2022/04/21 02:01:34;;;;;;;7.05;4.15;;;;;;;;;;5015144;28;20032;-70
2022/04/21 02:04:19;;;;;;;6.95;4.57;;;;;;;;;;4996209;28;20357;-69
2022/04/21 02:07:05;;;;;;;9.82;4.90;;;;;;;;;;4999745;28;20100;-74
2022/04/21 02:09:50;;;;;;;6.43;4.55;;;;;;;;;;5001433;28;20033;-77
2022/04/21 02:12:36;;;;;;;9.95;5.05;;;;;;;;;;5005755;28;20034;-75
2022/04/21 02:15:23;;;;;;;7.97;4.50;;;;;;;;;;5015326;28;20079;-73
2022/04/21 02:18:08;;;;;;;8.77;5.10;;;;;;;;;;5001604;28;20017;-74
2022/04/21 02:20:53;;;;;;;7.93;4.55;;;;;;;;;;5000609;28;20026;-74
2022/04/21 02:23:38;;;;;;;10.25;5.40;;;;;;;;;;5014063;28;20076;-67
2022/04/21 02:26:24;;;;;;;8.60;4.82;;;;;;;;;;5020678;28;20041;-73
2022/04/21 02:29:09;;;;;;;7.85;5.03;;;;;;;;;;5009728;28;20021;-75
2022/04/21 02:31:54;;;;;;;9.45;4.47;;;;;;;;;;5014233;28;20029;-74
2022/04/21 02:34:41;;;;;;;10.40;5.20;;;;;;;;;;5000281;28;20029;-73
2022/04/21 02:37:26;;;;;;;8.00;4.95;;;;;;;;;;5001841;28;20405;-72
2022/04/21 02:40:12;;;;;;;9.90;5.65;;;;;;;;;;5014008;28;20057;-70
2022/04/21 02:42:58;;;;;;;6.57;4.40;;;;;;;;;;4995034;28;20030;-73
2022/04/21 02:45:43;;;;;;;8.30;4.70;;;;;;;;;;5027858;28;20496;-65
2022/04/21 02:48:29;;;;;;;9.27;5.15;;;;;;;;;;5003819;28;20044;-64
2022/04/21 02:51:14;;;;;;;11.73;5.45;;;;;;;;;;4995676;28;20080;-65
2022/04/21 02:57:22;;;;;;;10.13;5.28;;;;;;;;;;5020056;28;20049;-65
2022/04/21 03:00:07;;;;;;;9.77;5.63;;;;;;;;;;5000613;28;20022;-69
2022/04/21 03:02:53;;;;;;;8.23;5.22;;;;;;;;;;5008880;28;20096;-65
2022/04/21 03:05:38;;;;;;;10.50;5.38;;;;;;;;;;4998658;28;20092;-65
2022/04/21 03:08:23;;;;;;;9.90;5.68;;;;;;;;;;5008772;28;20018;-66
2022/04/21 03:11:08;;;;;;;8.77;5.18;;;;;;;;;;5018226;28;20164;-67
2022/04/21 03:13:54;;;;;;;12.65;5.93;;;;;;;;;;5000847;28;20017;-65
2022/04/21 03:16:39;;;;;;;10.43;5.45;;;;;;;;;;5012800;28;20473;-64
2022/04/21 03:19:24;;;;;;;8.07;5.53;;;;;;;;;;5001097;28;20042;-69
2022/04/21 03:25:15;;;;;;;6.57;4.72;;;;;;;;;;5030696;28;20037;-65
2022/04/21 03:28:01;;;;;;;11.85;5.28;;;;;;;;;;5014270;28;20526;-65
2022/04/21 03:30:46;;;;;;;11.15;5.70;;;;;;;;;;5002679;28;20431;-68
2022/04/21 03:33:32;;;;;;;10.18;6.20;;;;;;;;;;5010638;28;20018;-66
2022/04/21 03:36:17;;;;;;;9.23;5.95;;;;;;;;;;5007062;28;20044;-73
2022/04/21 03:39:03;;;;;;;8.73;5.82;;;;;;;;;;5013320;28;20014;-73
2022/04/21 03:41:53;;;;;;;10.35;6.68;;;;;;;;;;5016925;28;20061;-73
2022/04/21 03:44:41;;;;;;;10.55;5.40;;;;;;;;;;5017573;28;20493;-75
2022/04/21 03:47:27;;;;;;;8.60;5.93;;;;;;;;;;5013047;28;20037;-73
2022/04/21 03:50:12;;;;;;;8.82;5.88;;;;;;;;;;4997934;28;20033;-74
2022/04/21 03:52:57;;;;;;;8.10;6.03;;;;;;;;;;5015854;28;20033;-75
2022/04/21 03:55:42;;;;;;;11.68;6.25;;;;;;;;;;5012568;28;20033;-66
2022/04/21 03:58:28;;;;;;;11.52;5.90;;;;;;;;;;4989022;28;20230;-67
2022/04/21 04:01:13;;;;;;;8.77;5.93;;;;;;;;;;5017112;28;20086;-67
2022/04/21 04:03:58;;;;;;;13.55;6.63;;;;;;;;;;5001531;28;20065;-70
2022/04/21 04:12:51;;;;;;;9.75;6.20;;;;;;;;;;5006873;28;20029;-73
2022/04/21 04:15:37;;;;;;;9.30;5.47;;;;;;;;;;5017088;28;20036;-70
2022/04/21 04:18:23;;;;;;;10.18;6.35;;;;;;;;;;5016405;28;20033;-66
2022/04/21 04:21:12;;;;;;;15.35;7.50;;;;;;;;;;5023784;28;20045;-63
2022/04/21 04:23:57;;;;;;;11.73;6.87;;;;;;;;;;5012761;28;20033;-71
2022/04/21 04:26:43;;;;;;;11.65;7.18;;;;;;;;;;5017229;28;20318;-65
2022/04/21 04:29:28;;;;;;;12.85;7.72;;;;;;;;;;5009974;28;20028;-64
2022/04/21 04:32:14;;;;;;;12.23;7.30;;;;;;;;;;4998847;28;20125;-68
2022/04/21 04:35:00;;;;;;;11.77;6.57;;;;;;;;;;5016479;28;20053;-68
2022/04/21 04:37:46;;;;;;;11.13;7.63;;;;;;;;;;5007800;28;20025;-68
2022/04/21 04:40:31;;;;;;;10.80;6.70;;;;;;;;;;4983763;28;20036;-68
2022/04/21 04:43:17;;;;;;;14.38;7.55;;;;;;;;;;5000095;28;20541;-69
2022/04/21 04:49:06;;;;;;;11.73;8.13;;;;;;;;;;5015324;28;20031;-68
2022/04/21 04:51:52;;;;;;;11.45;7.30;;;;;;;;;;5010591;28;20125;-71
2022/04/21 04:54:37;;;;;;;11.27;6.82;;;;;;;;;;5008700;28;20037;-70
2022/04/21 04:57:23;;;;;;;12.35;7.75;;;;;;;;;;5015727;28;20424;-69
2022/04/21 05:00:08;;;;;;;10.25;7.25;;;;;;;;;;5015694;28;20474;-67
2022/04/21 05:02:53;;;;;;;12.57;8.00;;;;;;;;;;4996814;28;20025;-67
2022/04/21 05:05:38;;;;;;;12.75;7.43;;;;;;;;;;5008934;28;20034;-67
2022/04/21 05:08:24;;;;;;;13.23;7.63;;;;;;;;;;4996868;28;20013;-66
2022/04/21 05:11:11;;;;;;;11.63;8.02;;;;;;;;;;4990140;28;20098;-69
2022/04/21 05:13:56;;;;;;;11.05;8.32;;;;;;;;;;4996619;28;20555;-69
2022/04/21 05:16:41;;;;;;;12.85;7.53;;;;;;;;;;5005245;28;20013;-69
2022/04/21 05:19:27;;;;;;;10.63;7.05;;;;;;;;;;4997088;28;20051;-68
2022/04/21 05:22:13;;;;;;;15.98;8.95;;;;;;;;;;5001775;28;20117;-69
2022/04/21 05:24:59;;;;;;;11.35;8.25;;;;;;;;;;5004059;28;20087;-69
2022/04/21 05:27:44;;;;;;;13.23;9.32;;;;;;;;;;5010735;28;20465;-69
2022/04/21 05:33:35;;;;;;;11.93;8.60;;;;;;;;;;5023706;28;20264;-74
2022/04/21 05:36:21;;;;;;;16.02;9.18;;;;;;;;;;4988046;28;20032;-74
2022/04/21 05:39:06;;;;;;;11.93;9.05;;;;;;;;;;5006817;28;20034;-74
2022/04/21 05:41:52;;;;;;;14.80;8.23;;;;;;;;;;5001625;28;20026;-73
2022/04/21 05:44:38;;;;;;;14.52;9.30;;;;;;;;;;5008007;28;20033;-69
2022/04/21 05:47:24;;;;;;;12.65;8.38;;;;;;;;;;5010019;28;20063;-63
2022/04/21 05:50:10;;;;;;;12.82;8.55;;;;;;;;;;5008062;28;20029;-77
2022/04/21 05:52:57;;;;;;;17.63;8.30;;;;;;;;;;5012858;28;20060;-77
2022/04/21 05:55:43;;;;;;;14.23;8.32;;;;;;;;;;4996071;28;20034;-78
2022/04/21 05:58:28;;;;;;;11.40;9.15;;;;;;;;;;5011614;28;20029;-65
2022/04/21 06:01:13;;;;;;;13.82;9.65;;;;;;;;;;5005160;28;20473;-65
2022/04/21 06:03:58;;;;;;;11.93;9.00;;;;;;;;;;5016620;28;20029;-70
2022/04/21 06:06:44;;;;;;;18.08;9.02;;;;;;;;;;5001820;28;20740;-69
2022/04/21 06:09:29;;;;;;;10.75;7.88;;;;;;;;;;4987107;28;20498;-71
2022/04/21 06:12:15;;;;;;;12.90;7.82;;;;;;;;;;4995008;28;20404;-67
2022/04/21 06:15:00;;;;;;;12.90;8.50;;;;;;;;;;5003433;28;20513;-70
2022/04/21 06:17:46;;;;;;;11.43;7.43;;;;;;;;;;4999361;28;20515;-74
2022/04/21 06:20:31;;;;;;;10.13;7.10;;;;;;;;;;5009346;28;20022;-65
2022/04/21 06:23:16;;;;;;;15.30;8.38;;;;;;;;;;4996709;28;20104;-69
2022/04/21 06:26:03;;;;;;;13.45;8.30;;;;;;;;;;5005187;28;20037;-70
2022/04/21 06:28:49;;;;;;;11.35;8.35;;;;;;;;;;5008769;28;20499;-68
2022/04/21 06:31:36;;;;;;;11.70;7.93;;;;;;;;;;4990346;28;20104;-70
2022/04/21 06:34:24;;;;;;;11.32;9.13;;;;;;;;;;5006740;28;20100;-70
2022/04/21 06:37:10;;;;;;;15.52;9.35;;;;;;;;;;5019354;28;20025;-69
2022/04/21 06:39:55;;;;;;;14.30;10.10;;;;;;;;;;5016060;28;20050;-63
2022/04/21 06:42:42;;;;;;;13.10;10.13;;;;;;;;;;5020816;28;20068;-64
2022/04/21 06:48:31;;;;;;;12.73;9.35;;;;;;;;;;5003308;28;20481;-71
2022/04/21 06:51:18;;;;;;;15.55;9.77;;;;;;;;;;5009052;28;20026;-70
2022/04/21 06:54:03;;;;;;;13.85;10.15;;;;;;;;;;5006574;28;20101;-69
2022/04/21 06:56:48;;;;;;;14.95;10.43;;;;;;;;;;5006808;28;20026;-73
2022/04/21 06:59:34;;;;;;;12.98;10.35;;;;;;;;;;5018669;28;20026;-67
2022/04/21 07:02:25;;;;;;;12.02;8.45;;;;;;;;;;5017146;28;20014;-70
2022/04/21 07:05:11;;;;;;;13.20;9.80;;;;;;;;;;5004027;28;20061;-73
2022/04/21 07:07:56;;;;;;;11.40;9.02;;;;;;;;;;5004294;28;20030;-71
2022/04/21 07:10:41;;;;;;;14.95;9.80;;;;;;;;;;5003330;28;20144;-75
2022/04/21 07:13:27;;;;;;;12.77;9.85;;;;;;;;;;5002557;28;20026;-70
2022/04/21 07:16:12;;;;;;;13.00;8.80;;;;;;;;;;5006405;28;20068;-73
2022/04/21 07:18:57;;;;;;;11.40;9.13;;;;;;;;;;5022008;28;20476;-73
2022/04/21 07:21:42;;;;;;;13.23;9.77;;;;;;;;;;4997829;28;20373;-71
2022/04/21 07:24:28;;;;;;;10.90;8.70;;;;;;;;;;5004659;28;20022;-73
2022/04/21 07:27:13;;;;;;;14.38;9.98;;;;;;;;;;5009097;28;20029;-73
2022/04/21 07:30:00;;;;;;;13.30;9.27;;;;;;;;;;5000283;28;20025;-72
2022/04/21 07:32:46;;;;;;;11.63;8.98;;;;;;;;;;5021477;28;20105;-78
2022/04/21 07:35:32;;;;;;;13.80;9.43;;;;;;;;;;5018669;28;20181;-70
2022/04/21 07:38:17;;;;;;;14.73;9.85;;;;;;;;;;4993166;28;20025;-66
2022/04/21 07:41:03;;;;;;;15.15;8.63;;;;;;;;;;5002941;28;20049;-65
2022/04/21 07:43:48;;;;;;;10.68;9.07;;;;;;;;;;5008104;28;20029;-63
2022/04/21 07:46:33;;;;;;;12.93;9.13;;;;;;;;;;5004174;28;20048;-65
2022/04/21 07:55:50;;;;;;;13.95;10.60;;;;;;;;;;4926067;28;20595;-75
2022/04/21 07:58:35;;;;;;;10.85;8.77;;;;;;;;;;5009018;28;20377;-72
2022/04/21 08:01:21;;;;;;;10.98;9.45;;;;;;;;;;5019027;28;20029;-71
2022/04/21 08:04:06;;;;;;;12.45;8.25;;;;;;;;;;5002812;28;20555;-71
2022/04/21 08:06:51;;;;;;;11.85;9.10;;;;;;;;;;5006291;28;20038;-69
2022/04/21 08:09:36;;;;;;;10.00;8.75;;;;;;;;;;5004530;28;20083;-73
2022/04/21 08:12:22;;;;;;;12.52;8.90;;;;;;;;;;5006649;28;20034;-71
2022/04/21 08:15:08;;;;;;;12.98;9.30;;;;;;;;;;4997237;28;20773;-71
2022/04/21 08:17:54;;;;;;;10.02;8.27;;;;;;;;;;5010057;28;20029;-71
2022/04/21 08:20:40;;;;;;;11.00;7.93;;;;;;;;;;5012216;28;20128;-68
2022/04/21 08:23:25;;;;;;;10.82;7.80;;;;;;;;;;5011666;28;20040;-70
2022/04/21 08:32:33;;;;;;;10.55;7.95;;;;;;;;;;5010900;28;20064;-59
2022/04/21 08:35:19;;;;;;;10.70;8.25;;;;;;;;;;5024848;28;20041;-62
2022/04/21 08:38:04;;;;;;;11.30;7.63;;;;;;;;;;5002900;28;20025;-62
2022/04/21 08:40:49;;;;;;;12.05;8.27;;;;;;;;;;5024484;28;20017;-62
2022/04/21 08:43:35;;;;;;;10.80;7.80;;;;;;;;;;5005963;28;21228;-71
2022/04/21 08:46:24;;;;;;;8.80;7.30;;;;;;;;;;5019643;28;20511;-70
2022/04/21 08:49:10;;;;;;;9.88;7.38;;;;;;;;;;5007172;28;20036;-70
2022/04/21 08:51:56;;;;;;;9.98;7.38;;;;;;;;;;5000715;28;20587;-69
2022/04/21 08:54:45;;;;;;;9.90;7.57;;;;;;;;;;5021110;28;20032;-71
2022/04/21 08:57:31;;;;;;;10.77;8.07;;;;;;;;;;4994029;28;20087;-71
2022/04/21 09:00:16;;;;;;;8.07;7.00;;;;;;;;;;5004999;28;20022;-69
2022/04/21 09:03:06;;;;;;;9.90;7.05;;;;;;;;;;5010437;28;20025;-73
2022/04/21 09:05:51;;;;;;;10.20;8.32;;;;;;;;;;4992054;28;20033;-71
2022/04/21 09:08:36;;;;;;;11.88;7.82;;;;;;;;;;5003687;28;20532;-70
2022/04/21 09:11:22;;;;;;;10.15;7.10;;;;;;;;;;5008147;28;20107;-65
2022/04/21 09:14:12;;;;;;;8.73;6.90;;;;;;;;;;5006872;28;20465;-64
2022/04/21 09:17:03;;;;;;;11.55;8.02;;;;;;;;;;4992690;28;20033;-67
2022/04/21 09:19:55;;;;;;;10.73;7.63;;;;;;;;;;5008125;28;20048;-63
2022/04/21 09:22:42;;;;;;;9.65;6.97;;;;;;;;;;4994202;28;20167;-62
2022/04/21 09:25:28;;;;;;;11.15;7.03;;;;;;;;;;5002639;28;20382;-64
2022/04/21 09:28:27;;;;;;;10.63;7.57;;;;;;;;;;5007936;28;20025;-66
2022/04/21 09:31:13;;;;;;;15.27;7.10;;;;;;;;;;4992108;28;20049;-72
2022/04/21 09:33:58;;;;;;;9.07;6.80;;;;;;;;;;5007603;28;20033;-72
2022/04/21 09:36:43;;;;;;;8.93;6.70;;;;;;;;;;5008241;28;20084;-68
2022/04/21 09:39:28;;;;;;;8.60;7.68;;;;;;;;;;4998970;28;20332;-69
2022/04/21 09:42:22;;;;;;;10.85;7.22;;;;;;;;;;5005300;28;20040;-70
2022/04/21 09:48:16;;;;;;;7.05;6.07;;;;;;;;;;5003171;28;20669;-69
2022/04/21 09:51:11;;;;;;;9.00;7.43;;;;;;;;;;5011529;28;20036;-75
2022/04/21 09:54:00;;;;;;;8.70;6.80;;;;;;;;;;4988647;28;20025;-72
2022/04/21 09:56:45;;;;;;;10.27;6.90;;;;;;;;;;5008229;28;20033;-72
2022/04/21 09:59:35;;;;;;;9.32;7.50;;;;;;;;;;5010249;28;20543;-70
2022/04/21 10:02:20;;;;;;;7.70;5.97;;;;;;;;;;5007530;28;20065;-68
2022/04/21 10:05:06;;;;;;;9.02;8.05;;;;;;;;;;5014929;28;20125;-69
2022/04/21 10:07:52;;;;;;;7.88;6.45;;;;;;;;;;5020821;28;20039;-66
2022/04/21 10:10:38;;;;;;;9.88;6.50;;;;;;;;;;5015475;28;20057;-66
2022/04/21 10:13:23;;;;;;;9.52;6.45;;;;;;;;;;4993836;28;20029;-62
2022/04/21 10:16:08;;;;;;;8.18;5.50;;;;;;;;;;5020563;28;20044;-61
2022/04/21 10:18:58;;;;;;;8.85;6.10;;;;;;;;;;5008059;28;20029;-64
2022/04/21 10:21:52;;;;;;;6.82;5.20;;;;;;;;;;5005900;28;20041;-70
2022/04/21 10:24:38;;;;;;;9.23;6.68;;;;;;;;;;5004943;28;20108;-68
2022/04/21 10:27:37;;;;;;;13.10;6.28;;;;;;;;;;5003857;28;20092;-67
2022/04/21 10:30:25;;;;;;;8.18;6.40;;;;;;;;;;5005017;28;20381;-69
2022/04/21 10:33:10;;;;;;;8.25;6.78;;;;;;;;;;5003497;28;20382;-72
2022/04/21 10:35:56;;;;;;;7.75;6.32;;;;;;;;;;5002041;28;20029;-69
2022/04/21 10:38:41;;;;;;;8.82;5.72;;;;;;;;;;4996361;28;20092;-71
2022/04/21 10:41:36;;;;;;;11.82;6.05;;;;;;;;;;5001021;28;20041;-69
2022/04/21 10:44:27;;;;;;;11.23;5.82;;;;;;;;;;5002487;28;20057;-70
2022/04/21 10:47:31;;;;;;;8.10;5.75;;;;;;;;;;5007545;28;20173;-72
2022/04/21 10:50:18;;;;;;;6.85;5.20;;;;;;;;;;4997785;28;20026;-71
2022/04/21 10:59:27;;;;;;;6.95;5.47;;;;;;;;;;5013823;28;20034;-70
2022/04/21 11:02:13;;;;;;;8.63;5.90;;;;;;;;;;5027476;28;20424;-73
2022/04/21 11:04:58;;;;;;;8.05;5.20;;;;;;;;;;5026314;28;20268;-70
2022/04/21 11:07:53;;;;;;;8.32;5.70;;;;;;;;;;5004885;28;20030;-69
2022/04/21 11:10:39;;;;;;;9.75;5.93;;;;;;;;;;5021284;28;20052;-71
2022/04/21 11:13:42;;;;;;;8.70;4.63;;;;;;;;;;5010108;28;20025;-70
2022/04/21 11:16:40;;;;;;;6.97;4.80;;;;;;;;;;5003182;28;20029;-63
2022/04/21 11:19:29;;;;;;;6.20;4.53;;;;;;;;;;5004244;28;20815;-65
2022/04/21 11:22:34;;;;;;;6.07;5.22;;;;;;;;;;5007281;28;20370;-66
2022/04/21 11:25:19;;;;;;;6.15;4.38;;;;;;;;;;5010819;28;20037;-62
2022/04/21 11:28:05;;;;;;;6.15;4.28;;;;;;;;;;5003207;28;20079;-60
2022/04/21 11:30:57;;;;;;;5.55;4.40;;;;;;;;;;5003535;28;20038;-63
2022/04/21 11:33:44;;;;;;;7.35;5.43;;;;;;;;;;5009319;28;20032;-62
2022/04/21 11:36:34;;;;;;;8.60;4.85;;;;;;;;;;4999631;28;20057;-64
2022/04/21 11:39:20;;;;;;;5.85;4.57;;;;;;;;;;5016729;28;20021;-63
2022/04/21 11:42:05;;;;;;;5.88;4.22;;;;;;;;;;5003983;28;20038;-65
2022/04/21 11:44:50;;;;;;;6.47;4.38;;;;;;;;;;5016461;28;20419;-64
2022/04/21 11:47:38;;;;;;;6.20;3.78;;;;;;;;;;5004735;28;20412;-64
2022/04/21 11:50:25;;;;;;;4.63;3.13;;;;;;;;;;5005148;28;20380;-62
2022/04/21 11:53:12;;;;;;;5.30;3.65;;;;;;;;;;5007347;28;20556;-57
2022/04/21 11:55:57;;;;;;;4.60;3.50;;;;;;;;;;5003321;28;20101;-62
2022/04/21 11:58:43;;;;;;;5.82;3.40;;;;;;;;;;5013836;28;20029;-64
2022/04/21 12:07:36;;;;;;;7.75;2.83;;;;;;;;;;5001077;28;20040;-67
2022/04/21 12:10:21;;;;;;;4.43;3.35;;;;;;;;;;5008714;28;20536;-63
2022/04/21 12:13:07;;;;;;;4.97;2.60;;;;;;;;;;5012220;28;20496;-61
2022/04/21 12:15:52;;;;;;;3.90;2.53;;;;;;;;;;5009106;28;20021;-62
2022/04/21 12:18:44;;;;;;;3.30;2.65;;;;;;;;;;4996952;28;20036;-64
2022/04/21 12:21:34;;;;;;;4.13;2.30;;;;;;;;;;5008524;28;20038;-63
2022/04/21 12:24:20;;;;;;;3.15;2.50;;;;;;;;;;5006544;28;20068;-62
2022/04/21 12:27:13;;;;;;;2.63;2.28;;;;;;;;;;5007225;28;20373;-61
2022/04/21 12:29:59;;;;;;;2.65;2.03;;;;;;;;;;4995928;28;20030;-61
2022/04/21 12:32:45;;;;;;;3.28;1.98;;;;;;;;;;5003848;28;20492;-67
2022/04/21 12:35:44;;;;;;;3.00;1.85;;;;;;;;;;5000704;28;20025;-65
2022/04/21 12:41:35;;;;;;;2.50;1.73;;;;;;;;;;5003471;28;20033;-66
2022/04/21 12:44:23;;;;;;;2.53;1.52;;;;;;;;;;5000533;28;20052;-66
2022/04/21 12:47:12;;;;;;;2.72;1.77;;;;;;;;;;5001813;28;20041;-65
2022/04/21 12:50:01;;;;;;;2.33;1.63;;;;;;;;;;5026657;28;20044;-62
2022/04/21 12:52:46;;;;;;;;;;;;;;;;;;5002927;28;20489;-62
2022/04/21 12:55:32;;;;;;;2.00;1.58;;;;;;;;;;5003459;28;20296;-63
2022/04/21 12:58:26;;;;;;;3.20;1.80;;;;;;;;;;5001220;28;20113;-61
2022/04/21 13:01:12;;;;;;;3.80;1.83;;;;;;;;;;5009538;28;20022;-63
2022/04/21 13:03:58;;;;;;;1.80;1.35;;;;;;;;;;5009106;28;20072;-64
2022/04/21 13:06:44;;;;;;;2.20;1.88;;;;;;;;;;5003526;28;20064;-62
2022/04/21 13:09:29;;;;;;;2.00;1.58;;;;;;;;;;5022473;28;20124;-55
2022/04/21 13:12:14;;;;;;;2.45;1.80;;;;;;;;;;5017858;28;20025;-62
2022/04/21 13:15:00;;;;;;;4.00;2.03;;;;;;;;;;4989928;28;20025;-63
2022/04/21 13:17:47;;;;;;;4.25;1.98;;;;;;;;;;5000764;28;20087;-62
2022/04/21 13:23:36;;;;;;;4.78;1.83;;;;;;;;;;5008192;28;20041;-62
2022/04/21 13:26:24;;;;;;;3.75;1.80;;;;;;;;;;5008979;28;20166;-69
2022/04/21 13:29:09;;;;;;;2.20;1.92;;;;;;;;;;5005466;28;20021;-61
2022/04/21 13:34:58;;;;;;;4.43;2.30;;;;;;;;;;5005221;28;20026;-72
2022/04/21 13:37:43;;;;;;;3.60;2.50;;;;;;;;;;5011277;28;20559;-71
2022/04/21 13:40:29;;;;;;;3.88;2.58;;;;;;;;;;5013875;28;20029;-70
2022/04/21 13:43:14;;;;;;;3.65;2.20;;;;;;;;;;5016137;28;20021;-69
2022/04/21 13:46:00;;;;;;;4.93;2.10;;;;;;;;;;5007571;28;20128;-66
2022/04/21 13:48:45;;;;;;;7.20;2.67;;;;;;;;;;4999982;28;20026;-66
2022/04/21 13:51:30;;;;;;;3.92;2.17;;;;;;;;;;5013327;28;20281;-67
2022/04/21 13:54:17;;;;;;;5.65;2.72;;;;;;;;;;5014307;28;20028;-67
2022/04/21 13:57:03;;;;;;;3.97;2.38;;;;;;;;;;5009966;28;20033;-66
2022/04/21 13:59:48;;;;;;;3.00;2.03;;;;;;;;;;4999267;28;20357;-65
2022/04/21 14:02:33;;;;;;;2.97;2.40;;;;;;;;;;5029167;28;20025;-69
2022/04/21 14:05:19;;;;;;;3.35;2.03;;;;;;;;;;5007728;28;20026;-69
2022/04/21 14:08:05;;;;;;;3.25;2.28;;;;;;;;;;5002192;28;20068;-70
2022/04/21 14:10:50;;;;;;;4.55;2.50;;;;;;;;;;5013105;28;20030;-69
2022/04/21 14:13:35;;;;;;;3.80;2.55;;;;;;;;;;5013439;28;20037;-69
2022/04/21 14:16:21;;;;;;;3.42;2.30;;;;;;;;;;5007860;28;20029;-69
2022/04/21 14:19:06;;;;;;;3.80;2.83;;;;;;;;;;4997810;28;20344;-68
2022/04/21 14:21:51;;;;;;;3.38;2.25;;;;;;;;;;5024216;28;20470;-76
2022/04/21 14:24:37;;;;;;;2.67;2.17;;;;;;;;;;5001964;28;20029;-69
2022/04/21 14:27:22;;;;;;;2.75;2.45;;;;;;;;;;5007854;28;20448;-67
2022/04/21 14:30:08;;;;;;;5.00;2.60;;;;;;;;;;5001140;28;20488;-67
2022/04/21 14:32:54;;;;;;;5.65;2.67;;;;;;;;;;5014089;28;20112;-68
2022/04/21 14:35:39;;;;;;;3.10;2.30;;;;;;;;;;5011966;28;20090;-69
2022/04/21 14:44:33;;;;;;;5.38;2.22;;;;;;;;;;5010083;28;20416;-72
2022/04/21 14:47:18;;;;;;;2.83;2.50;;;;;;;;;;5013588;28;20029;-72
2022/04/21 14:50:05;;;;;;;4.82;2.47;;;;;;;;;;5002961;28;20025;-73
2022/04/21 14:52:51;;;;;;;3.67;2.47;;;;;;;;;;4985530;28;20087;-72
2022/04/21 14:55:36;;;;;;;3.15;2.47;;;;;;;;;;4998828;28;20029;-72
2022/04/21 14:58:21;;;;;;;3.20;2.40;;;;;;;;;;4994802;28;20110;-66
2022/04/21 15:01:07;;;;;;;4.78;2.33;;;;;;;;;;5013278;28;20048;-68
2022/04/21 15:03:52;;;;;;;4.53;3.05;;;;;;;;;;5025864;28;20029;-71
2022/04/21 15:06:37;;;;;;;4.30;2.45;;;;;;;;;;5007468;28;20042;-68
2022/04/21 15:09:22;;;;;;;2.25;1.95;;;;;;;;;;5006025;28;20030;-69
2022/04/21 15:12:08;;;;;;;5.05;2.80;;;;;;;;;;5003323;28;20104;-69
2022/04/21 15:14:53;;;;;;;7.30;2.22;;;;;;;;;;4996532;28;20062;-69
2022/04/21 15:17:39;;;;;;;4.28;2.30;;;;;;;;;;5012554;28;20028;-73
2022/04/21 15:20:24;;;;;;;5.30;2.50;;;;;;;;;;5011360;28;20310;-66
2022/04/21 15:23:12;;;;;;;4.00;2.00;;;;;;;;;;5002344;28;20025;-66
2022/04/21 15:25:57;;;;;;;3.30;2.58;;;;;;;;;;5018572;28;20033;-66
2022/04/21 15:28:43;;;;;;;4.60;2.20;;;;;;;;;;5020452;28;20034;-68
2022/04/21 15:31:28;;;;;;;2.58;2.38;;;;;;;;;;5015785;28;20543;-68
2022/04/21 15:34:14;;;;;;;3.20;2.53;;;;;;;;;;5027699;28;20112;-66
2022/04/21 15:37:00;;;;;;;3.03;2.30;;;;;;;;;;5018422;28;20022;-69
2022/04/21 15:39:48;;;;;;;4.03;2.05;;;;;;;;;;4999408;28;20038;-67
2022/04/21 15:42:33;;;;;;;4.95;2.30;;;;;;;;;;4998948;28;20030;-66
2022/04/21 15:45:19;;;;;;;4.15;1.77;;;;;;;;;;5016875;28;20029;-68
2022/04/21 15:48:04;;;;;;;5.72;2.42;;;;;;;;;;5031058;28;20025;-70
2022/04/21 15:50:51;;;;;;;2.92;2.30;;;;;;;;;;5016416;28;20049;-67
2022/04/21 16:00:04;;;;;;;4.47;2.30;;;;;;;;;;4947541;28;20023;-74
2022/04/21 16:02:50;;;;;;;6.43;2.08;;;;;;;;;;4948786;28;20031;-72
2022/04/21 16:05:35;;;;;;;6.10;2.17;;;;;;;;;;4996396;28;20083;-73
2022/04/21 16:08:21;;;;;;;2.28;1.65;;;;;;;;;;5010232;28;20021;-75
2022/04/21 16:11:06;;;;;;;2.00;1.60;;;;;;;;;;5012113;28;20048;-78
2022/04/21 16:13:51;;;;;;;3.22;2.20;;;;;;;;;;5007301;28;20068;-68
2022/04/21 16:16:37;;;;;;;2.55;1.85;;;;;;;;;;4998208;28;20033;-70
2022/04/21 16:19:22;;;;;;;3.38;1.90;;;;;;;;;;5011611;28;20021;-68
2022/04/21 16:22:07;;;;;;;2.75;2.03;;;;;;;;;;5016296;28;20029;-68
2022/04/21 16:24:53;;;;;;;3.00;1.90;;;;;;;;;;5017336;28;20083;-70
2022/04/21 16:27:38;;;;;;;6.35;2.47;;;;;;;;;;5017027;28;20047;-68
2022/04/21 16:30:24;;;;;;;3.65;2.15;;;;;;;;;;4988987;28;20064;-67
2022/04/21 16:33:09;;;;;;;3.47;2.15;;;;;;;;;;5016866;28;20477;-70
2022/04/21 16:35:55;;;;;;;2.75;2.15;;;;;;;;;;5002622;28;20033;-69
2022/04/21 16:38:40;;;;;;;3.42;2.20;;;;;;;;;;5030027;28;20018;-71
2022/04/21 16:41:26;;;;;;;3.55;1.92;;;;;;;;;;5001581;28;20029;-70
2022/04/21 16:44:11;;;;;;;5.75;2.20;;;;;;;;;;5017031;28;20397;-70
2022/04/21 16:46:56;;;;;;;3.25;1.92;;;;;;;;;;5015811;28;20183;-69
2022/04/21 16:49:43;;;;;;;4.43;2.30;;;;;;;;;;5015649;28;20440;-77
2022/04/21 16:52:29;;;;;;;3.97;1.90;;;;;;;;;;5007487;28;20039;-70
2022/04/21 16:55:14;;;;;;;2.92;2.03;;;;;;;;;;5030616;28;20021;-67
2022/04/21 16:57:59;;;;;;;3.97;1.95;;;;;;;;;;5015987;28;20029;-67
2022/04/21 17:03:49;;;;;;;3.97;2.15;;;;;;;;;;5014798;28;20067;-67
2022/04/21 17:06:34;;;;;;;3.05;2.20;;;;;;;;;;5030386;28;20044;-73
2022/04/21 17:09:19;;;;;;;3.08;2.20;;;;;;;;;;5009217;28;20033;-68
2022/04/21 17:12:05;;;;;;;3.17;1.92;;;;;;;;;;5012224;28;20555;-67
2022/04/21 17:14:51;;;;;;;2.58;1.90;;;;;;;;;;5029958;28;20017;-68
2022/04/21 17:17:36;;;;;;;4.28;2.15;;;;;;;;;;5015477;28;20033;-68
2022/04/21 17:20:21;;;;;;;6.13;2.38;;;;;;;;;;4995977;28;20105;-68
2022/04/21 17:23:06;;;;;;;2.60;2.20;;;;;;;;;;5010058;28;20037;-68
2022/04/21 17:25:52;;;;;;;3.38;2.83;;;;;;;;;;5016104;28;20552;-69
2022/04/21 17:28:37;;;;;;;6.63;2.60;;;;;;;;;;5002192;28;20017;-72
2022/04/21 17:31:22;;;;;;;4.82;2.92;;;;;;;;;;5008528;28;20034;-72
2022/04/21 17:34:08;;;;;;;4.03;2.90;;;;;;;;;;5012344;28;20029;-72
2022/04/21 17:36:53;;;;;;;4.00;2.50;;;;;;;;;;5015753;28;20491;-73
2022/04/21 17:39:39;;;;;;;3.88;2.65;;;;;;;;;;5015229;28;20022;-75
2022/04/21 17:42:25;;;;;;;7.63;3.08;;;;;;;;;;5015388;28;20041;-74
2022/04/21 17:45:10;;;;;;;5.70;2.95;;;;;;;;;;5014581;28;20032;-68
2022/04/21 17:48:01;;;;;;;4.00;2.67;;;;;;;;;;5014460;28;20507;-66
2022/04/21 17:50:46;;;;;;;8.10;3.25;;;;;;;;;;5015321;28;20369;-68